Terminal Aerodrome Forecast
Issued by NWS Missoula, MT

Home | Current Version | Previous Version | Text Only | Print | Product List | Glossary On
Versions: 1 2 3 4 5 6 7 8 9 10 11 12
000
FTUS45 KMSO 312320
TAFBTM
TAF
KBTM 312320Z 0100/0124 33012KT P6SM BKN150
     FM010300 33009KT P6SM -SHSN BKN060 OVC100
     FM010800 33005KT P6SM OVC100=

USA.gov is the U.S. government's official web portal to all federal, state and local government web resources and services.